Time;durP1;ratioP1;P1;durP2;ratioP2;P2;SDS_P1;SDS_P2;PMS_P1;PMS_P2;Temp;Humidity;BMP_temperature;BMP_pressure;BME280_temperature;BME280_humidity;BME280_pressure;Samples;Min_cycle;Max_cycle;Signal;HPM_P1;HPM_P2
2023/03/21 00:00:22;;;;;;;32.15;14.70;;;;;;;8.81;95.78;101810.75;6102910;19;20007;-77
2023/03/21 00:02:29;;;;;;;30.77;14.68;;;;;;;8.82;95.70;101813.38;6110002;19;20039;-76
2023/03/21 00:04:38;;;;;;;26.45;13.82;;;;;;;8.83;95.92;101806.38;6111879;19;20078;-77
2023/03/21 00:06:57;;;;;;;32.70;16.55;;;;;;;8.83;95.97;101806.38;6115998;19;20371;-78
2023/03/21 00:09:04;;;;;;;32.95;15.95;;;;;;;8.84;95.75;101801.06;6120320;19;20058;-78
2023/03/21 00:11:13;;;;;;;30.92;16.65;;;;;;;8.87;95.81;101801.03;6121261;19;20326;-78
2023/03/21 00:13:18;;;;;;;32.55;16.90;;;;;;;8.85;95.81;101799.34;6119752;19;20253;-78
2023/03/21 00:15:24;;;;;;;34.38;17.60;;;;;;;8.86;95.60;101798.44;6114487;19;20325;-78
2023/03/21 00:17:51;;;;;;;30.75;16.90;;;;;;;8.84;96.08;101802.84;6120615;19;20014;-78
2023/03/21 00:19:56;;;;;;;32.45;16.30;;;;;;;8.82;96.08;101796.75;6116633;19;20018;-77
2023/03/21 00:22:01;;;;;;;35.97;18.30;;;;;;;8.75;96.74;101790.78;6118133;19;20018;-78
2023/03/21 00:24:15;;;;;;;34.55;18.20;;;;;;;8.73;96.83;101792.56;6106428;19;20006;-81
2023/03/21 00:26:21;;;;;;;31.15;16.90;;;;;;;8.79;96.76;101795.06;6102920;19;20026;-78
2023/03/21 00:28:29;;;;;;;38.60;18.23;;;;;;;8.76;97.11;101793.34;6102775;19;20026;-78
2023/03/21 00:30:35;;;;;;;36.97;19.25;;;;;;;8.75;96.82;101791.63;6101103;19;20015;-78
2023/03/21 00:32:48;;;;;;;37.03;16.77;;;;;;;8.73;96.81;101790.78;6097293;19;20015;-78
2023/03/21 00:35:00;;;;;;;33.42;18.30;;;;;;;8.73;96.84;101796.03;6093492;19;20280;-78
2023/03/21 00:37:27;;;;;;;31.50;15.80;;;;;;;8.71;97.45;101787.31;6095268;19;20013;-78
2023/03/21 00:39:35;;;;;;;31.05;17.92;;;;;;;8.72;97.29;101796.06;6094044;19;20014;-78
2023/03/21 00:41:40;;;;;;;33.90;19.08;;;;;;;8.73;97.20;101790.78;6098584;19;20024;-78
2023/03/21 00:43:50;;;;;;;34.58;18.05;;;;;;;8.72;97.12;101789.06;6096719;19;20294;-78
2023/03/21 00:46:01;;;;;;;39.45;18.33;;;;;;;8.70;97.43;101788.22;6096965;19;20010;-78
2023/03/21 00:48:10;;;;;;;36.97;18.67;;;;;;;8.69;97.37;101789.13;6093253;19;20018;-75
2023/03/21 00:50:15;;;;;;;33.58;17.58;;;;;;;8.69;97.29;101789.13;6097545;19;20011;-77
2023/03/21 00:52:21;;;;;;;37.92;18.45;;;;;;;8.68;97.36;101781.28;6098452;19;20021;-77
2023/03/21 00:54:46;;;;;;;;;;;;;;;8.67;97.36;101777.81;6097685;19;20231;-77
2023/03/21 00:56:51;;;;;;;33.22;17.00;;;;;;;8.67;97.42;101771.72;6093331;19;19986;-77
2023/03/21 00:58:59;;;;;;;37.35;18.23;;;;;;;8.64;97.67;101774.38;6076698;19;20383;-78
2023/03/21 01:01:05;;;;;;;35.33;17.63;;;;;;;8.62;98.04;101771.78;6096303;19;20019;-77
2023/03/21 01:03:15;;;;;;;33.53;18.55;;;;;;;8.62;97.92;101763.91;6096835;19;20409;-76
2023/03/21 01:07:51;;;;;;;40.90;18.83;;;;;;;8.65;97.53;101763.84;6074937;19;20017;-75
2023/03/21 01:10:02;;;;;;;40.58;19.38;;;;;;;8.62;97.49;101758.69;6094910;19;20028;-75
2023/03/21 01:12:09;;;;;;;36.38;17.60;;;;;;;8.62;97.51;101747.34;6093228;19;20018;-76
2023/03/21 01:14:16;;;;;;;35.15;16.25;;;;;;;8.66;97.31;101746.38;6097727;19;20692;-75
2023/03/21 01:16:29;;;;;;;40.55;18.60;;;;;;;8.63;97.31;101742.06;6097467;19;20035;-76
2023/03/21 01:18:35;;;;;;;44.83;18.65;;;;;;;8.66;96.87;101744.66;6094918;19;20017;-76
2023/03/21 01:20:47;;;;;;;36.50;18.25;;;;;;;8.69;96.87;101749.81;6097765;19;20014;-76
2023/03/21 01:22:54;;;;;;;37.63;18.08;;;;;;;8.70;96.70;101742.81;6097016;19;20613;-76
2023/03/21 01:25:02;;;;;;;35.65;17.00;;;;;;;8.70;96.68;101737.59;6092653;19;20024;-76
2023/03/21 01:27:26;;;;;;;34.00;15.73;;;;;;;8.71;96.17;101734.91;6097254;19;20797;-76
2023/03/21 01:29:31;;;;;;;31.83;15.75;;;;;;;8.71;96.19;101727.06;6096082;19;20021;-77
2023/03/21 01:31:36;;;;;;;30.08;16.50;;;;;;;8.70;96.07;101727.97;6097997;19;20018;-76
2023/03/21 01:33:41;;;;;;;35.80;17.35;;;;;;;8.74;95.83;101728.75;6096369;19;20015;-76
2023/03/21 01:35:47;;;;;;;29.48;15.85;;;;;;;8.74;95.66;101724.41;6092707;19;20010;-76
2023/03/21 01:38:02;;;;;;;28.35;14.85;;;;;;;8.73;95.52;101720.03;6073733;19;20015;-76
2023/03/21 01:40:16;;;;;;;34.10;16.08;;;;;;;8.74;95.74;101724.41;6086466;19;20085;-75
2023/03/21 01:42:21;;;;;;;29.30;16.15;;;;;;;8.72;95.46;101726.19;6074440;19;20015;-76
2023/03/21 01:44:27;;;;;;;28.80;14.20;;;;;;;8.76;95.54;101716.50;6092578;19;20042;-76
2023/03/21 01:46:45;;;;;;;31.95;15.07;;;;;;;8.73;95.42;101714.78;6094937;19;20023;-77
2023/03/21 01:49:08;;;;;;;26.13;13.27;;;;;;;8.72;95.59;101718.31;6078182;19;20018;-76
2023/03/21 01:51:15;;;;;;;28.85;13.15;;;;;;;8.76;95.20;101724.34;6099732;19;20017;-76
2023/03/21 01:53:22;;;;;;;23.95;12.32;;;;;;;8.76;94.98;101727.84;6100248;19;20111;-78
2023/03/21 01:55:30;;;;;;;24.63;12.63;;;;;;;8.76;95.04;101726.97;6099800;19;20066;-79
2023/03/21 01:57:40;;;;;;;22.35;12.07;;;;;;;8.73;95.08;101722.66;6103114;19;20235;-78
2023/03/21 02:00:11;;;;;;;21.08;11.30;;;;;;;8.74;95.28;101719.16;6100358;19;20038;-75
2023/03/21 02:02:22;;;;;;;22.30;10.50;;;;;;;8.73;95.35;101716.56;6091618;19;20017;-76
2023/03/21 02:04:29;;;;;;;21.55;10.57;;;;;;;8.69;95.86;101720.09;6097720;19;20026;-76
2023/03/21 02:06:42;;;;;;;22.02;11.30;;;;;;;8.68;96.08;101713.16;6100484;19;20038;-77
2023/03/21 02:08:50;;;;;;;26.45;12.10;;;;;;;8.69;95.85;101710.53;6101971;19;20023;-77
2023/03/21 02:10:58;;;;;;;23.65;12.18;;;;;;;8.67;96.12;101712.28;6102770;19;20028;-77
2023/03/21 02:13:10;;;;;;;29.48;11.48;;;;;;;8.66;96.48;101709.69;6101309;19;20013;-77
2023/03/21 02:15:16;;;;;;;26.87;13.10;;;;;;;8.64;96.42;101716.75;6097215;19;20010;-77
2023/03/21 02:17:30;;;;;;;25.00;12.43;;;;;;;8.64;96.47;101709.75;6100617;19;20022;-78
2023/03/21 02:19:56;;;;;;;23.95;12.57;;;;;;;8.60;96.80;101700.19;6102831;19;20010;-78
2023/03/21 02:22:34;;;;;;;23.23;13.18;;;;;;;8.56;96.94;101704.63;6097891;19;20021;-77
2023/03/21 02:25:19;;;;;;;22.00;11.60;;;;;;;8.56;96.87;101695.91;6097579;19;20014;-77
2023/03/21 02:27:30;;;;;;;23.25;11.43;;;;;;;8.53;96.95;101696.84;6101314;19;20006;-77
2023/03/21 02:30:05;;;;;;;22.70;11.80;;;;;;;8.52;96.89;101683.75;6101207;19;20082;-77
2023/03/21 02:32:20;;;;;;;23.52;11.95;;;;;;;8.52;96.95;101683.75;6098705;19;20586;-77
2023/03/21 02:34:54;;;;;;;28.20;13.55;;;;;;;8.50;97.13;101681.16;6103851;19;20010;-78
2023/03/21 02:37:33;;;;;;;39.17;16.30;;;;;;;8.47;97.22;101683.84;6099855;19;20006;-77
2023/03/21 02:39:50;;;;;;;30.53;16.23;;;;;;;8.46;97.26;101670.78;6099968;19;20307;-77
2023/03/21 02:42:04;;;;;;;40.67;18.23;;;;;;;8.45;96.88;101669.94;6100734;19;20368;-77
2023/03/21 02:44:17;;;;;;;25.92;13.98;;;;;;;8.47;96.79;101664.63;6074471;19;20597;-77
2023/03/21 02:46:29;;;;;;;26.63;13.30;;;;;;;8.46;96.81;101663.78;6101381;19;20014;-78
2023/03/21 02:48:51;;;;;;;27.27;12.77;;;;;;;8.44;97.14;101667.31;6101912;19;20220;-76
2023/03/21 02:51:00;;;;;;;23.33;10.95;;;;;;;8.45;96.80;101672.53;6102527;19;20672;-76
2023/03/21 02:53:14;;;;;;;21.70;10.60;;;;;;;8.43;96.59;101665.59;6101399;19;20125;-76
2023/03/21 02:55:24;;;;;;;21.08;10.60;;;;;;;8.41;96.69;101668.25;6099552;19;20010;-76
2023/03/21 02:57:29;;;;;;;25.02;11.38;;;;;;;8.40;96.87;101660.41;6103527;19;20062;-76
2023/03/21 02:59:47;;;;;;;24.27;12.15;;;;;;;8.44;96.38;101664.69;6100400;19;20015;-76
2023/03/21 03:02:02;;;;;;;19.55;11.77;;;;;;;8.44;96.19;101656.84;6103239;19;20102;-76
2023/03/21 03:04:20;;;;;;;23.98;12.02;;;;;;;8.40;96.51;101657.78;6085604;19;20006;-76
2023/03/21 03:06:29;;;;;;;25.80;11.75;;;;;;;8.40;96.19;101665.63;6103614;19;20048;-76
2023/03/21 03:08:51;;;;;;;30.75;13.15;;;;;;;8.40;96.45;101661.28;6102517;19;20017;-76
2023/03/21 03:11:19;;;;;;;26.27;13.40;;;;;;;8.40;96.08;101650.81;6104251;19;20039;-76
2023/03/21 03:14:02;;;;;;;22.27;12.75;;;;;;;8.40;96.08;101656.06;6103746;19;20351;-75
2023/03/21 03:17:01;;;;;;;33.17;13.80;;;;;;;8.46;95.72;101663.78;6032398;19;20014;-76
2023/03/21 03:19:27;;;;;;;26.25;12.90;;;;;;;8.41;95.89;101659.53;5932040;19;20013;-75
2023/03/21 03:30:58;;;;;;;27.25;13.02;;;;;;;8.38;95.44;101656.94;6015416;19;20535;-75
2023/03/21 03:33:15;;;;;;;28.88;12.70;;;;;;;8.40;95.71;101653.44;6109411;19;20031;-77
2023/03/21 03:35:24;;;;;;;27.63;13.30;;;;;;;8.38;95.73;101651.69;6114478;19;20017;-77
2023/03/21 03:37:37;;;;;;;25.17;12.25;;;;;;;8.38;95.42;101643.84;6113924;19;20014;-77
2023/03/21 03:39:53;;;;;;;22.38;13.07;;;;;;;8.34;95.52;101646.50;6115686;19;20018;-78
2023/03/21 03:42:03;;;;;;;24.67;12.48;;;;;;;8.37;94.75;101640.34;6111752;19;20015;-77
2023/03/21 03:44:30;;;;;;;24.48;12.25;;;;;;;8.38;94.86;101635.97;6104782;19;20002;-77
2023/03/21 03:46:41;;;;;;;25.38;11.38;;;;;;;8.40;94.27;101639.44;6104420;19;20056;-77
2023/03/21 03:48:53;;;;;;;25.70;11.88;;;;;;;8.38;94.28;101636.84;6104027;19;20010;-77
2023/03/21 03:51:03;;;;;;;23.45;12.75;;;;;;;8.39;94.15;101641.22;6103069;19;20047;-77
2023/03/21 03:53:17;;;;;;;25.60;11.25;;;;;;;8.38;94.04;101644.69;6103757;19;20022;-77
2023/03/21 03:55:33;;;;;;;25.08;11.63;;;;;;;8.40;93.71;101639.44;6101469;19;20015;-78
2023/03/21 03:57:38;;;;;;;18.05;9.98;;;;;;;8.41;93.97;101641.19;6103448;19;20006;-78
2023/03/21 03:59:52;;;;;;;26.40;12.23;;;;;;;8.43;94.07;101634.19;6081448;19;20046;-78
2023/03/21 04:01:56;;;;;;;27.15;11.82;;;;;;;8.40;93.76;101634.22;6105770;19;20447;-78
2023/03/21 04:04:03;;;;;;;21.38;11.70;;;;;;;8.45;93.79;101635.88;6106807;19;20074;-79
2023/03/21 04:06:20;;;;;;;21.70;11.68;;;;;;;8.43;93.90;101628.94;6081827;19;20093;-78
2023/03/21 04:08:26;;;;;;;24.38;11.82;;;;;;;8.37;93.91;101629.84;6102167;19;21349;-77
2023/03/21 04:10:33;;;;;;;22.67;11.00;;;;;;;8.37;94.11;101629.84;6103826;19;20003;-78
2023/03/21 04:12:39;;;;;;;25.15;12.18;;;;;;;8.35;94.25;101627.28;6098452;19;20227;-77
2023/03/21 04:14:44;;;;;;;25.38;11.85;;;;;;;8.35;94.13;101634.28;6104032;19;20031;-77
2023/03/21 04:16:51;;;;;;;21.42;11.38;;;;;;;8.36;94.27;101629.00;6100648;19;20007;-77
2023/03/21 04:18:56;;;;;;;35.25;11.70;;;;;;;8.34;94.20;101624.69;6099443;19;20010;-77
2023/03/21 04:21:01;;;;;;;22.38;11.48;;;;;;;8.31;94.39;101619.50;6096340;19;20068;-77
2023/03/21 04:23:06;;;;;;;22.48;11.18;;;;;;;8.31;94.48;101616.88;6098047;19;20014;-76
2023/03/21 04:25:12;;;;;;;20.67;12.32;;;;;;;8.31;94.42;101616.88;6101238;19;20039;-76
2023/03/21 04:27:31;;;;;;;24.35;11.60;;;;;;;8.31;94.42;101617.75;6099886;19;20034;-77
2023/03/21 04:29:39;;;;;;;28.75;11.38;;;;;;;8.34;94.36;101617.69;6100580;19;20017;-77
2023/03/21 04:31:43;;;;;;;22.65;10.77;;;;;;;8.33;94.21;101613.34;6098561;19;20039;-78
2023/03/21 04:33:48;;;;;;;19.95;11.18;;;;;;;8.33;94.02;101609.88;6101201;19;20243;-77
2023/03/21 04:35:54;;;;;;;24.92;11.77;;;;;;;8.31;94.30;101615.13;6100855;19;20031;-77
2023/03/21 04:37:59;;;;;;;24.35;11.77;;;;;;;8.31;94.06;101607.28;6102139;19;20010;-77
2023/03/21 04:40:06;;;;;;;25.52;11.60;;;;;;;8.33;93.48;101608.09;6101588;19;20011;-77
2023/03/21 04:42:11;;;;;;;29.33;12.50;;;;;;;8.38;93.34;101609.78;6097975;19;20094;-77
2023/03/21 04:44:20;;;;;;;26.98;12.43;;;;;;;8.34;93.42;101607.19;6100125;19;20011;-77
2023/03/21 04:46:25;;;;;;;23.88;11.98;;;;;;;8.33;93.94;101605.50;6099145;19;20014;-76
2023/03/21 04:48:31;;;;;;;22.20;11.30;;;;;;;8.35;93.50;101606.34;6095313;19;20010;-78
2023/03/21 04:50:36;;;;;;;26.35;12.07;;;;;;;8.40;93.17;101605.41;6100226;19;20010;-78
2023/03/21 04:52:41;;;;;;;22.75;11.30;;;;;;;8.36;93.26;101602.81;6098716;19;20626;-78
2023/03/21 04:54:49;;;;;;;21.75;11.90;;;;;;;8.39;93.24;101595.78;6100086;19;20018;-76
2023/03/21 04:56:54;;;;;;;26.38;13.32;;;;;;;8.42;92.62;101596.63;6101612;19;20007;-77
2023/03/21 04:59:02;;;;;;;28.83;11.90;;;;;;;8.39;92.61;101586.22;6101205;19;20021;-77
2023/03/21 05:01:13;;;;;;;26.95;12.65;;;;;;;8.40;92.67;101580.09;6098421;19;20011;-76
2023/03/21 05:03:21;;;;;;;24.33;11.88;;;;;;;8.41;92.73;101580.94;6097795;19;20017;-77
2023/03/21 05:05:26;;;;;;;24.88;12.57;;;;;;;8.43;92.46;101581.78;6099451;19;20693;-78
2023/03/21 05:07:31;;;;;;;25.65;12.80;;;;;;;8.41;92.98;101581.81;6097686;19;20021;-76
2023/03/21 05:09:36;;;;;;;24.95;12.02;;;;;;;8.44;92.73;101584.38;6095290;19;20019;-76
2023/03/21 05:11:43;;;;;;;27.17;13.40;;;;;;;8.42;92.13;101586.16;6096457;19;20015;-76
2023/03/21 05:13:48;;;;;;;27.73;13.82;;;;;;;8.40;92.55;101587.06;6097940;19;20020;-77
2023/03/21 05:15:57;;;;;;;26.40;13.70;;;;;;;8.41;92.25;101580.94;6098527;19;20658;-77
2023/03/21 05:18:10;;;;;;;24.33;13.43;;;;;;;8.36;93.00;101587.09;6075732;19;20509;-78
2023/03/21 05:20:20;;;;;;;23.75;12.40;;;;;;;8.36;92.95;101587.09;6048829;19;20600;-77
2023/03/21 05:22:27;;;;;;;26.80;12.52;;;;;;;8.36;92.89;101592.34;6096589;19;20079;-78
2023/03/21 05:24:33;;;;;;;24.23;12.25;;;;;;;8.35;92.92;101592.38;6101023;19;20498;-78
2023/03/21 05:26:40;;;;;;;26.17;12.80;;;;;;;8.38;93.06;101588.84;6080977;19;20082;-78
2023/03/21 05:28:46;;;;;;;25.55;13.75;;;;;;;8.36;92.88;101586.25;6098832;19;20019;-78
2023/03/21 05:30:51;;;;;;;29.95;14.35;;;;;;;8.38;92.52;101586.22;6103881;19;20011;-79
2023/03/21 05:32:56;;;;;;;28.90;12.02;;;;;;;8.37;92.82;101587.94;6081609;19;20247;-79
2023/03/21 05:35:04;;;;;;;31.23;13.65;;;;;;;8.37;92.58;101585.34;6102343;19;20066;-80
2023/03/21 05:37:08;;;;;;;25.95;13.30;;;;;;;8.38;92.69;101586.22;6105522;19;20026;-78
2023/03/21 05:39:15;;;;;;;27.70;13.05;;;;;;;8.42;91.66;101580.03;6101806;19;20031;-79
2023/03/21 05:41:22;;;;;;;26.70;12.75;;;;;;;8.46;92.25;101584.34;6105824;19;20014;-80
2023/03/21 05:43:27;;;;;;;29.45;14.13;;;;;;;8.39;92.53;101575.72;6104294;19;20038;-79
2023/03/21 05:45:34;;;;;;;22.48;12.93;;;;;;;8.40;92.38;101581.81;6103513;19;20014;-79
2023/03/21 05:47:39;;;;;;;30.70;14.20;;;;;;;8.39;92.20;101585.31;6101432;19;20030;-80
2023/03/21 05:49:48;;;;;;;28.95;12.32;;;;;;;8.37;92.36;101587.94;6081187;19;20014;-80
2023/03/21 05:51:57;;;;;;;22.13;12.35;;;;;;;8.42;91.68;101586.16;6096603;19;20010;-79
2023/03/21 05:54:03;;;;;;;24.90;12.65;;;;;;;8.44;91.80;101581.75;6082749;19;20035;-79
2023/03/21 05:56:12;;;;;;;28.60;12.90;;;;;;;8.40;92.18;101585.34;6099690;19;20664;-79
2023/03/21 05:58:19;;;;;;;27.15;13.40;;;;;;;8.38;92.46;101587.06;6101790;19;20022;-78
2023/03/21 06:00:27;;;;;;;24.40;11.55;;;;;;;8.37;92.95;101582.72;6099123;19;20830;-77
2023/03/21 06:02:38;;;;;;;24.88;11.48;;;;;;;8.40;92.58;101587.94;6101374;19;20021;-77
2023/03/21 06:04:47;;;;;;;22.42;11.40;;;;;;;8.40;92.42;101587.06;6102120;19;20010;-76
2023/03/21 06:06:57;;;;;;;22.15;11.43;;;;;;;8.38;92.98;101589.69;6102891;19;20409;-76
2023/03/21 06:09:02;;;;;;;26.73;11.32;;;;;;;8.37;92.49;101587.94;6102305;19;20479;-76
2023/03/21 06:11:24;;;;;;;24.52;12.48;;;;;;;8.34;93.15;101591.50;6100740;19;20046;-77
2023/03/21 06:13:30;;;;;;;25.08;11.27;;;;;;;8.36;93.22;101587.09;6103699;19;20011;-77
2023/03/21 06:15:35;;;;;;;26.15;12.35;;;;;;;8.35;93.11;101600.25;6101097;19;20078;-77
2023/03/21 06:17:42;;;;;;;29.17;13.18;;;;;;;8.35;93.55;101597.63;6080691;19;20002;-76
2023/03/21 06:19:48;;;;;;;23.63;11.90;;;;;;;8.32;93.76;101598.53;6100009;19;20014;-77
2023/03/21 06:21:55;;;;;;;24.45;11.70;;;;;;;8.32;93.69;101595.91;6102965;19;20013;-77
2023/03/21 06:24:04;;;;;;;23.30;12.75;;;;;;;8.36;93.85;101601.94;6076465;19;20011;-76
2023/03/21 06:26:10;;;;;;;23.40;12.75;;;;;;;8.33;93.88;101587.16;6099415;19;20361;-76
2023/03/21 06:28:16;;;;;;;20.38;10.65;;;;;;;8.35;93.66;101592.38;6098040;19;20559;-77
2023/03/21 06:30:27;;;;;;;23.50;11.20;;;;;;;8.32;93.95;101595.91;6100456;19;20014;-79
2023/03/21 06:32:32;;;;;;;22.35;10.73;;;;;;;8.33;93.89;101600.25;6103899;19;20024;-79
2023/03/21 06:34:38;;;;;;;20.55;11.18;;;;;;;8.32;94.40;101593.31;6105460;19;20007;-79
2023/03/21 06:36:45;;;;;;;28.13;13.52;;;;;;;8.31;94.58;101594.19;6117060;19;20010;-81
2023/03/21 06:38:50;;;;;;;23.63;11.40;;;;;;;8.33;94.27;101597.63;6122140;19;20014;-79
2023/03/21 06:40:58;;;;;;;23.52;11.45;;;;;;;8.30;94.69;101595.09;6123940;19;20020;-81
2023/03/21 06:43:03;;;;;;;22.85;11.98;;;;;;;8.29;94.87;101588.13;6103946;19;20006;-80
2023/03/21 06:45:12;;;;;;;23.80;10.82;;;;;;;8.26;94.90;101590.78;6126350;19;20006;-80
2023/03/21 06:47:21;;;;;;;28.65;13.35;;;;;;;8.24;94.96;101587.34;6131537;19;20010;-80
2023/03/21 06:49:27;;;;;;;23.98;11.35;;;;;;;8.26;95.41;101592.53;6123301;19;20010;-81
2023/03/21 06:51:33;;;;;;;23.60;11.30;;;;;;;8.25;95.43;101586.44;6126046;19;20018;-81
2023/03/21 06:53:38;;;;;;;25.13;10.65;;;;;;;8.25;95.28;101582.97;6129259;19;20017;-81
2023/03/21 06:58:48;;;;;;;25.45;11.98;;;;;;;8.24;95.76;101570.75;6086658;19;20502;-79
2023/03/21 07:00:53;;;;;;;24.20;11.57;;;;;;;8.22;95.62;101565.56;6107409;19;20010;-80
2023/03/21 07:02:58;;;;;;;20.95;10.60;;;;;;;8.23;95.56;101556.81;6106538;19;20010;-81
2023/03/21 07:05:03;;;;;;;28.33;11.27;;;;;;;8.24;95.52;101550.69;6089410;19;20011;-82
2023/03/21 07:07:09;;;;;;;26.08;11.30;;;;;;;8.23;95.76;101545.47;6103659;19;20010;-81
2023/03/21 07:09:16;;;;;;;25.95;11.50;;;;;;;8.24;95.78;101553.31;6105640;19;20015;-80
2023/03/21 07:11:22;;;;;;;23.02;10.45;;;;;;;8.27;95.25;101547.16;6100519;19;20010;-80
2023/03/21 07:13:29;;;;;;;20.20;10.85;;;;;;;8.26;95.46;101541.03;6100512;19;20010;-81
2023/03/21 07:15:37;;;;;;;24.88;10.73;;;;;;;8.32;95.19;101537.41;6099867;19;20090;-80
2023/03/21 07:17:45;;;;;;;23.25;10.80;;;;;;;8.29;95.13;101546.22;6099221;19;20455;-79
2023/03/21 07:19:51;;;;;;;28.10;11.25;;;;;;;8.33;95.01;101550.50;6100441;19;20090;-79
2023/03/21 07:21:56;;;;;;;23.83;10.70;;;;;;;8.34;95.25;101546.97;6079198;19;20014;-79
2023/03/21 07:24:01;;;;;;;22.70;11.40;;;;;;;8.34;95.42;101544.34;6098889;19;20086;-80
2023/03/21 07:26:07;;;;;;;22.50;10.90;;;;;;;8.38;95.34;101546.94;6100987;19;20289;-79
2023/03/21 07:28:14;;;;;;;23.60;10.80;;;;;;;8.38;95.35;101544.31;6100419;19;20644;-80
2023/03/21 07:30:21;;;;;;;25.98;11.57;;;;;;;8.39;95.05;101548.66;6100926;19;20015;-79
2023/03/21 07:32:34;;;;;;;20.35;11.27;;;;;;;8.42;95.75;101548.63;6101618;19;20366;-81
2023/03/21 07:34:39;;;;;;;27.23;10.52;;;;;;;8.41;95.63;101552.16;6101890;19;20011;-79
2023/03/21 07:36:46;;;;;;;28.70;12.70;;;;;;;8.45;95.11;101553.78;6102241;19;20677;-80
2023/03/21 07:38:53;;;;;;;22.25;10.57;;;;;;;8.45;95.58;101548.56;6077947;19;20018;-80
2023/03/21 07:41:00;;;;;;;23.73;10.00;;;;;;;8.44;95.65;101555.56;6099632;19;20010;-81
2023/03/21 07:43:07;;;;;;;22.45;10.77;;;;;;;8.46;95.32;101550.28;6100712;19;20018;-78
2023/03/21 07:45:19;;;;;;;24.58;10.20;;;;;;;8.47;95.22;101549.38;6097291;19;20020;-79
2023/03/21 07:47:25;;;;;;;21.38;10.77;;;;;;;8.47;94.96;101542.38;6096258;19;20019;-79
2023/03/21 07:49:34;;;;;;;23.75;10.68;;;;;;;8.52;94.92;101539.69;6098870;19;20031;-79
2023/03/21 07:51:39;;;;;;;22.85;10.35;;;;;;;8.57;94.75;101535.22;6099911;19;20066;-80
2023/03/21 07:53:47;;;;;;;23.08;9.43;;;;;;;8.58;94.80;101534.31;6101055;19;20014;-80
2023/03/21 07:55:54;;;;;;;20.23;8.38;;;;;;;8.64;94.49;101531.56;6077018;19;20558;-77
2023/03/21 07:57:59;;;;;;;18.58;8.95;;;;;;;8.64;93.54;101536.81;6099683;19;20680;-79
2023/03/21 08:00:06;;;;;;;22.00;8.93;;;;;;;8.69;93.15;101526.22;6099530;19;20013;-80
2023/03/21 08:02:14;;;;;;;19.58;9.90;;;;;;;8.74;93.08;101529.59;6092562;19;20645;-80
2023/03/21 08:04:21;;;;;;;22.80;9.43;;;;;;;8.74;93.26;101526.97;6078605;19;20025;-79
2023/03/21 08:06:34;;;;;;;19.23;9.43;;;;;;;8.78;93.73;101515.53;6098654;19;20067;-79
2023/03/21 08:08:43;;;;;;;22.08;10.38;;;;;;;8.87;93.59;101524.94;6081005;19;20094;-78
2023/03/21 08:10:51;;;;;;;17.42;8.52;;;;;;;8.92;93.64;101525.72;6098935;19;20035;-80
2023/03/21 08:12:56;;;;;;;20.55;8.85;;;;;;;8.97;92.87;101518.59;6102030;19;20645;-78
2023/03/21 08:15:04;;;;;;;16.85;8.07;;;;;;;8.97;92.49;101514.22;6112282;19;20010;-78
2023/03/21 08:17:09;;;;;;;19.20;8.20;;;;;;;9.00;92.12;101514.19;6104398;19;20580;-78
2023/03/21 08:19:17;;;;;;;15.63;7.55;;;;;;;9.07;91.99;101509.63;6098971;19;20683;-78
2023/03/21 08:21:26;;;;;;;19.27;8.52;;;;;;;9.07;91.72;101516.66;6100778;19;20013;-78
2023/03/21 08:23:33;;;;;;;16.48;7.97;;;;;;;9.09;91.78;101518.34;6102858;19;20668;-78
2023/03/21 08:25:43;;;;;;;17.67;8.43;;;;;;;9.14;91.57;101511.22;6102671;19;20010;-79
2023/03/21 08:27:48;;;;;;;21.20;8.52;;;;;;;9.16;91.19;101498.06;6104353;19;20097;-79
2023/03/21 08:29:53;;;;;;;20.35;7.72;;;;;;;9.26;91.52;101507.44;6105639;19;20011;-79
2023/03/21 08:32:00;;;;;;;18.10;8.00;;;;;;;9.24;90.25;101498.72;6108202;19;20342;-81
2023/03/21 08:34:07;;;;;;;12.88;7.22;;;;;;;9.34;89.11;101497.59;6107939;19;20590;-79
2023/03/21 08:36:14;;;;;;;14.82;7.05;;;;;;;9.47;89.58;101500.78;6104930;19;20015;-80
2023/03/21 08:38:19;;;;;;;14.82;7.20;;;;;;;9.53;89.62;101484.91;6106623;19;20626;-81
2023/03/21 08:40:27;;;;;;;13.65;7.43;;;;;;;9.66;89.30;101483.69;6103366;19;20021;-82
2023/03/21 08:42:32;;;;;;;17.40;7.63;;;;;;;9.66;88.61;101488.94;6103851;19;20035;-83
2023/03/21 08:44:37;;;;;;;16.40;7.95;;;;;;;9.57;87.87;101481.28;6104224;19;20027;-83
2023/03/21 08:46:45;;;;;;;18.73;8.18;;;;;;;9.66;86.61;101485.44;6105064;19;20011;-83
2023/03/21 08:48:52;;;;;;;17.38;7.40;;;;;;;9.73;86.94;101486.13;6104291;19;20328;-83
2023/03/21 08:50:57;;;;;;;15.15;7.20;;;;;;;9.84;87.23;101479.69;6106207;19;20031;-86
2023/03/21 08:53:02;;;;;;;15.95;7.38;;;;;;;10.00;87.92;101481.91;6104460;19;20035;-86
2023/03/21 08:55:08;;;;;;;14.30;7.45;;;;;;;9.84;86.15;101474.44;6107590;19;20006;-84
2023/03/21 08:57:16;;;;;;;13.85;6.97;;;;;;;9.93;87.21;101480.38;6114198;19;20031;-86
2023/03/21 08:59:21;;;;;;;15.15;8.20;;;;;;;9.94;87.53;101474.19;6097741;19;20030;-86
2023/03/21 09:01:26;;;;;;;19.30;8.85;;;;;;;9.87;85.64;101468.25;6120790;19;20007;-87
2023/03/21 09:03:31;;;;;;;18.92;9.23;;;;;;;9.95;86.09;101466.25;6125725;19;20015;-87
2023/03/21 09:05:36;;;;;;;18.92;9.20;;;;;;;9.99;85.92;101464.44;6126761;19;20048;-87
2023/03/21 09:07:44;;;;;;;23.77;9.63;;;;;;;10.22;87.03;101461.16;6103810;19;20024;-87
2023/03/21 09:09:51;;;;;;;18.88;8.63;;;;;;;10.33;86.90;101466.97;6101585;19;20018;-88
2023/03/21 09:12:18;;;;;;;19.27;8.85;;;;;;;10.41;86.31;101451.00;6122691;19;20015;-87
2023/03/21 09:14:25;;;;;;;25.23;10.52;;;;;;;10.32;84.74;101454.75;6122324;19;20021;-86
2023/03/21 09:16:32;;;;;;;20.50;8.57;;;;;;;10.46;86.38;101460.47;6120042;19;20050;-86
2023/03/21 09:18:49;;;;;;;21.67;9.23;;;;;;;10.47;86.16;101456.91;6121592;19;20010;-86
2023/03/21 09:20:55;;;;;;;20.67;9.55;;;;;;;10.42;85.56;101461.44;6125021;19;20077;-87
2023/03/21 09:23:02;;;;;;;19.48;10.48;;;;;;;10.35;85.18;101454.66;6120995;19;20011;-86
2023/03/21 09:25:10;;;;;;;18.58;9.23;;;;;;;10.39;85.73;101450.19;6094035;19;20014;-86
2023/03/21 09:27:21;;;;;;;19.73;9.77;;;;;;;10.47;85.17;101453.44;6118937;19;20021;-83
2023/03/21 09:29:26;;;;;;;18.95;9.07;;;;;;;10.53;85.46;101454.13;6117456;19;20018;-85
2023/03/21 09:31:31;;;;;;;21.67;9.35;;;;;;;10.66;86.15;101451.09;6113110;19;20529;-82
2023/03/21 09:33:37;;;;;;;18.63;10.38;;;;;;;10.70;85.24;101447.47;6108949;19;20007;-83
2023/03/21 09:35:42;;;;;;;18.75;10.00;;;;;;;10.65;85.50;101452.88;6111159;19;20027;-81
2023/03/21 09:37:50;;;;;;;19.27;9.75;;;;;;;10.73;85.56;101445.59;6108808;19;20569;-82
2023/03/21 09:39:57;;;;;;;19.77;9.60;;;;;;;10.73;85.07;101450.00;6110243;19;20498;-81
2023/03/21 09:42:16;;;;;;;22.95;11.40;;;;;;;10.80;84.85;101448.06;6106418;19;20015;-81
2023/03/21 09:44:42;;;;;;;20.75;10.27;;;;;;;10.89;85.17;101453.84;6096998;19;20014;-82
2023/03/21 09:46:53;;;;;;;26.45;11.30;;;;;;;10.94;85.18;101456.34;6080891;19;20015;-80
2023/03/21 09:49:03;;;;;;;22.88;9.55;;;;;;;10.92;83.85;101455.53;6104845;19;20035;-80
2023/03/21 09:51:16;;;;;;;19.98;9.77;;;;;;;11.02;84.66;101446.44;6104374;19;20098;-79
2023/03/21 09:53:26;;;;;;;24.15;11.02;;;;;;;11.07;84.41;101454.19;6105533;19;20114;-79
2023/03/21 09:55:33;;;;;;;21.65;10.07;;;;;;;11.05;84.30;101451.59;6111416;19;20022;-78
2023/03/21 09:57:45;;;;;;;21.05;9.77;;;;;;;11.08;83.16;101445.38;6113293;19;20011;-80
2023/03/21 09:59:55;;;;;;;19.73;10.10;;;;;;;11.12;83.57;101449.63;6112723;19;20022;-79
2023/03/21 10:02:04;;;;;;;19.13;9.45;;;;;;;11.15;82.69;101441.63;6120412;19;20018;-80
2023/03/21 10:04:21;;;;;;;25.83;9.95;;;;;;;11.31;83.58;101442.84;6119032;19;20023;-80
2023/03/21 10:06:29;;;;;;;22.55;10.38;;;;;;;11.36;83.51;101440.91;6100160;19;20616;-79
2023/03/21 10:08:37;;;;;;;20.60;10.90;;;;;;;11.38;83.35;101440.88;6120616;19;20014;-80
2023/03/21 10:10:49;;;;;;;18.60;10.05;;;;;;;11.42;82.74;101432.78;6119266;19;20018;-79